Time;durP1;ratioP1;P1;durP2;ratioP2;P2;SDS_P1;SDS_P2;PMS_P1;PMS_P2;Temp;Humidity;BMP_temperature;BMP_pressure;BME280_temperature;BME280_humidity;BME280_pressure;Samples;Min_cycle;Max_cycle;Signal;HPM_P1;HPM_P2
2021/11/20 00:00:33;;;;;;;2.53;2.42;;;;;;;;;;4973783;28;20034;-75
2021/11/20 00:03:02;;;;;;;2.90;2.70;;;;;;;;;;4956414;28;20081;-77
2021/11/20 00:05:31;;;;;;;3.30;3.10;;;;;;;;;;4973259;28;20101;-75
2021/11/20 00:07:58;;;;;;;3.15;2.97;;;;;;;;;;4973534;28;20055;-76
2021/11/20 00:10:27;;;;;;;3.30;3.10;;;;;;;;;;4973414;28;20035;-76
2021/11/20 00:12:53;;;;;;;3.72;3.53;;;;;;;;;;4959320;28;20042;-75
2021/11/20 00:15:23;;;;;;;2.85;2.75;;;;;;;;;;4952323;29;20043;-77
2021/11/20 00:17:50;;;;;;;5.35;4.93;;;;;;;;;;4954309;29;20445;-77
2021/11/20 00:20:18;;;;;;;3.40;3.20;;;;;;;;;;4953426;29;20054;-75
2021/11/20 00:22:46;;;;;;;2.75;2.65;;;;;;;;;;4954616;29;20043;-75
2021/11/20 00:25:28;;;;;;;2.80;2.63;;;;;;;;;;4954096;29;20579;-74
2021/11/20 00:27:56;;;;;;;3.45;3.25;;;;;;;;;;4936705;29;20584;-75
2021/11/20 00:30:25;;;;;;;4.22;3.80;;;;;;;;;;4953761;29;20051;-75
2021/11/20 00:33:02;;;;;;;3.78;3.50;;;;;;;;;;4936339;29;20139;-75
2021/11/20 00:35:35;;;;;;;3.10;2.30;;;;;;;;;;4952065;29;20606;-75
2021/11/20 00:38:02;;;;;;;5.57;2.70;;;;;;;;;;4953795;29;20054;-75
2021/11/20 00:40:34;;;;;;;3.60;3.40;;;;;;;;;;4953144;29;20805;-75
2021/11/20 00:42:59;;;;;;;4.00;3.70;;;;;;;;;;4953473;29;20061;-74
2021/11/20 00:45:26;;;;;;;2.70;2.60;;;;;;;;;;4953331;28;20051;-74
2021/11/20 00:47:52;;;;;;;3.10;2.90;;;;;;;;;;4952887;29;20055;-75
2021/11/20 00:50:18;;;;;;;3.53;3.22;;;;;;;;;;4953758;29;20042;-74
2021/11/20 00:52:45;;;;;;;4.18;3.25;;;;;;;;;;4953568;29;20082;-76
2021/11/20 00:55:13;;;;;;;4.00;3.55;;;;;;;;;;4952902;29;20035;-75
2021/11/20 00:57:41;;;;;;;3.45;3.15;;;;;;;;;;4953319;29;20850;-75
2021/11/20 01:00:10;;;;;;;4.00;3.53;;;;;;;;;;4936127;29;20043;-74
2021/11/20 01:02:36;;;;;;;3.53;3.25;;;;;;;;;;4951149;29;20051;-75
2021/11/20 01:05:04;;;;;;;5.03;3.80;;;;;;;;;;4953552;29;20043;-76
2021/11/20 01:07:30;;;;;;;4.85;3.92;;;;;;;;;;4953218;29;20082;-75
2021/11/20 01:09:56;;;;;;;4.35;3.30;;;;;;;;;;4952866;29;20070;-74
2021/11/20 01:12:26;;;;;;;4.18;3.83;;;;;;;;;;4961392;28;20426;-75
2021/11/20 01:14:53;;;;;;;4.68;4.15;;;;;;;;;;4972540;28;20111;-76
2021/11/20 01:17:21;;;;;;;4.05;3.67;;;;;;;;;;4959752;28;20038;-76
2021/11/20 01:19:49;;;;;;;4.57;4.18;;;;;;;;;;4955471;28;20502;-75
2021/11/20 01:22:16;;;;;;;4.13;3.60;;;;;;;;;;4954979;28;20412;-75
2021/11/20 01:24:42;;;;;;;6.45;4.72;;;;;;;;;;4952636;28;20488;-75
2021/11/20 01:27:09;;;;;;;5.88;4.70;;;;;;;;;;4972285;28;20772;-75
2021/11/20 01:29:34;;;;;;;5.57;4.53;;;;;;;;;;4972201;28;20046;-76
2021/11/20 01:32:01;;;;;;;4.57;4.18;;;;;;;;;;4954608;28;20038;-76
2021/11/20 01:34:27;;;;;;;5.30;4.78;;;;;;;;;;4954909;28;20061;-76
2021/11/20 01:36:56;;;;;;;4.00;3.72;;;;;;;;;;4971982;28;20078;-76
2021/11/20 01:39:26;;;;;;;4.43;4.07;;;;;;;;;;4971985;28;20038;-76
2021/11/20 01:42:00;;;;;;;4.45;3.13;;;;;;;;;;4972255;28;20043;-74
2021/11/20 01:44:32;;;;;;;4.50;4.18;;;;;;;;;;4971728;28;20058;-76
2021/11/20 01:47:01;;;;;;;4.22;3.88;;;;;;;;;;4969473;28;20085;-75
2021/11/20 01:49:37;;;;;;;4.28;3.63;;;;;;;;;;4954779;28;20117;-75
2021/11/20 01:52:40;;;;;;;4.75;4.35;;;;;;;;;;4954892;28;20050;-75
2021/11/20 01:55:32;;;;;;;4.43;4.13;;;;;;;;;;4971334;28;20070;-76
2021/11/20 01:58:10;;;;;;;5.97;5.22;;;;;;;;;;4949705;28;20039;-75
2021/11/20 02:00:54;;;;;;;5.80;4.93;;;;;;;;;;4958735;28;20141;-75
2021/11/20 02:03:26;;;;;;;5.60;4.82;;;;;;;;;;4975585;28;20051;-76
2021/11/20 02:06:10;;;;;;;5.75;5.05;;;;;;;;;;4975837;28;20057;-75
2021/11/20 02:08:41;;;;;;;6.47;5.47;;;;;;;;;;4973614;28;20043;-75
2021/11/20 02:11:21;;;;;;;5.97;5.00;;;;;;;;;;4975150;28;20054;-74
2021/11/20 02:13:48;;;;;;;10.50;4.57;;;;;;;;;;4976091;28;20042;-75
2021/11/20 02:16:23;;;;;;;6.45;5.72;;;;;;;;;;4958506;28;20133;-76
2021/11/20 02:18:54;;;;;;;3.58;3.30;;;;;;;;;;4975609;28;20087;-76
2021/11/20 02:21:34;;;;;;;5.20;4.80;;;;;;;;;;4958589;28;20054;-75
2021/11/20 02:23:59;;;;;;;5.63;4.43;;;;;;;;;;4975016;28;20053;-76
2021/11/20 02:26:24;;;;;;;4.18;3.97;;;;;;;;;;4958044;28;20043;-76
2021/11/20 02:28:52;;;;;;;5.13;4.68;;;;;;;;;;4975524;28;20045;-76
2021/11/20 02:31:17;;;;;;;4.13;3.72;;;;;;;;;;4973139;28;20516;-75
2021/11/20 02:33:46;;;;;;;4.20;3.75;;;;;;;;;;4958224;28;20043;-75
2021/11/20 02:36:16;;;;;;;3.40;3.10;;;;;;;;;;4975072;28;20490;-76
2021/11/20 02:39:02;;;;;;;;;;;;;;;;;;4975294;28;20039;-77
2021/11/20 02:41:29;;;;;;;4.45;4.10;;;;;;;;;;4974952;28;19922;-76
2021/11/20 02:44:00;;;;;;;6.68;4.55;;;;;;;;;;4975383;28;20508;-76
2021/11/20 02:46:29;;;;;;;6.32;4.25;;;;;;;;;;4974615;28;20043;-76
2021/11/20 02:48:56;;;;;;;5.00;4.13;;;;;;;;;;4974999;28;20055;-75
2021/11/20 02:51:24;;;;;;;4.68;4.28;;;;;;;;;;4975332;28;20043;-75
2021/11/20 02:54:00;;;;;;;6.32;4.28;;;;;;;;;;4972336;28;20535;-76
2021/11/20 02:56:34;;;;;;;6.25;4.13;;;;;;;;;;4974858;28;20070;-75
2021/11/20 02:59:00;;;;;;;4.65;4.35;;;;;;;;;;4975050;28;20081;-74
2021/11/20 03:01:29;;;;;;;5.03;3.55;;;;;;;;;;4974574;28;20042;-75
2021/11/20 03:03:55;;;;;;;5.53;5.03;;;;;;;;;;4974744;28;20126;-76
2021/11/20 03:06:22;;;;;;;5.05;4.28;;;;;;;;;;4974627;28;20524;-76
2021/11/20 03:08:48;;;;;;;5.38;4.88;;;;;;;;;;4956620;28;20073;-76
2021/11/20 03:11:15;;;;;;;6.28;4.78;;;;;;;;;;4973747;28;20492;-75
2021/11/20 03:13:43;;;;;;;5.10;4.60;;;;;;;;;;4955367;29;20529;-74
2021/11/20 03:16:09;;;;;;;6.00;5.50;;;;;;;;;;4952942;29;20058;-74
2021/11/20 03:18:35;;;;;;;6.53;5.93;;;;;;;;;;4955292;29;20043;-75
2021/11/20 03:21:01;;;;;;;5.65;5.10;;;;;;;;;;4955068;29;20463;-76
2021/11/20 03:23:34;;;;;;;5.38;4.88;;;;;;;;;;4954842;29;20043;-75
2021/11/20 03:25:59;;;;;;;4.95;4.55;;;;;;;;;;4955514;29;20075;-75
2021/11/20 03:28:25;;;;;;;5.88;5.10;;;;;;;;;;4955155;29;20074;-75
2021/11/20 03:30:51;;;;;;;5.15;4.72;;;;;;;;;;4954575;29;20081;-76
2021/11/20 03:33:16;;;;;;;4.93;4.53;;;;;;;;;;4955306;29;20043;-75
2021/11/20 03:35:43;;;;;;;5.60;4.90;;;;;;;;;;4954890;29;20050;-76
2021/11/20 03:38:08;;;;;;;5.88;4.50;;;;;;;;;;4952298;29;20680;-75
2021/11/20 03:40:34;;;;;;;6.35;4.95;;;;;;;;;;4954908;29;20059;-75
2021/11/20 03:43:00;;;;;;;7.03;5.22;;;;;;;;;;4954666;29;20035;-75
2021/11/20 03:45:29;;;;;;;5.18;4.63;;;;;;;;;;4954938;29;20043;-76
2021/11/20 03:47:55;;;;;;;6.93;4.97;;;;;;;;;;4954319;29;20062;-76
2021/11/20 03:50:21;;;;;;;5.43;4.90;;;;;;;;;;4954640;29;20057;-75
2021/11/20 03:52:47;;;;;;;4.28;3.95;;;;;;;;;;4954529;29;20167;-76
2021/11/20 03:55:20;;;;;;;5.82;4.72;;;;;;;;;;4954779;29;20039;-75
2021/11/20 03:57:46;;;;;;;7.70;5.47;;;;;;;;;;4954617;29;20130;-75
2021/11/20 04:00:16;;;;;;;6.47;5.65;;;;;;;;;;4952241;29;20130;-76
2021/11/20 04:02:44;;;;;;;7.75;5.85;;;;;;;;;;4954512;29;20050;-75
2021/11/20 04:05:12;;;;;;;;;;;;;;;;;;4954850;29;20059;-75
2021/11/20 04:07:38;;;;;;;6.47;5.28;;;;;;;;;;4953851;29;19948;-75
2021/11/20 04:10:06;;;;;;;5.47;4.97;;;;;;;;;;4954209;29;20466;-75
2021/11/20 04:12:32;;;;;;;6.78;6.05;;;;;;;;;;4954205;29;20114;-75
2021/11/20 04:14:57;;;;;;;10.35;6.00;;;;;;;;;;4936626;29;20493;-75
2021/11/20 04:17:23;;;;;;;6.57;5.18;;;;;;;;;;4952983;29;20043;-74
2021/11/20 04:19:48;;;;;;;6.25;5.00;;;;;;;;;;4953451;28;20126;-76
2021/11/20 04:22:14;;;;;;;6.57;5.60;;;;;;;;;;4951133;29;20497;-74
2021/11/20 04:24:40;;;;;;;4.97;4.57;;;;;;;;;;4953973;29;20047;-74
2021/11/20 04:27:07;;;;;;;4.43;4.13;;;;;;;;;;4953973;29;20047;-76
2021/11/20 04:29:33;;;;;;;3.47;3.28;;;;;;;;;;4936438;29;20039;-76
2021/11/20 04:31:58;;;;;;;4.03;3.75;;;;;;;;;;4953940;29;20046;-76
2021/11/20 04:34:24;;;;;;;4.05;3.80;;;;;;;;;;4953881;29;20070;-76
2021/11/20 04:36:49;;;;;;;3.88;3.58;;;;;;;;;;4953694;29;20182;-75
2021/11/20 04:39:15;;;;;;;6.25;3.80;;;;;;;;;;4953563;29;20134;-75
2021/11/20 04:41:40;;;;;;;6.00;4.22;;;;;;;;;;4953628;29;20051;-75
2021/11/20 04:44:06;;;;;;;5.07;4.05;;;;;;;;;;4951886;29;20047;-76
2021/11/20 04:46:32;;;;;;;4.60;4.20;;;;;;;;;;4935704;29;20091;-74
2021/11/20 04:48:58;;;;;;;4.35;4.03;;;;;;;;;;4953449;29;20540;-75
2021/11/20 04:51:25;;;;;;;5.07;4.68;;;;;;;;;;4953411;29;20424;-76
2021/11/20 04:53:52;;;;;;;4.95;3.88;;;;;;;;;;4935759;29;20385;-76
2021/11/20 04:56:22;;;;;;;5.22;4.82;;;;;;;;;;4953721;29;20050;-75
2021/11/20 04:58:49;;;;;;;2.90;2.70;;;;;;;;;;4953507;29;20059;-76
2021/11/20 05:01:15;;;;;;;7.30;6.55;;;;;;;;;;4935858;29;20452;-76
2021/11/20 05:03:41;;;;;;;5.88;4.55;;;;;;;;;;4953477;29;20055;-77
2021/11/20 05:06:07;;;;;;;5.07;4.55;;;;;;;;;;4934082;29;20043;-78
2021/11/20 05:08:33;;;;;;;4.30;3.85;;;;;;;;;;4953374;29;20206;-77
2021/11/20 05:10:59;;;;;;;5.95;4.68;;;;;;;;;;4953382;29;20123;-70
2021/11/20 05:13:26;;;;;;;5.45;4.88;;;;;;;;;;4970178;28;20496;-81
2021/11/20 05:15:54;;;;;;;5.03;4.63;;;;;;;;;;4956651;28;20043;-81
2021/11/20 05:18:20;;;;;;;8.30;5.10;;;;;;;;;;4974458;28;20053;-81
2021/11/20 05:20:46;;;;;;;9.15;6.65;;;;;;;;;;4974241;28;20043;-81
2021/11/20 05:23:14;;;;;;;4.22;3.83;;;;;;;;;;4973627;28;20043;-82
2021/11/20 05:25:40;;;;;;;3.78;3.55;;;;;;;;;;4973449;28;20050;-81
2021/11/20 05:28:06;;;;;;;6.75;4.55;;;;;;;;;;4953887;28;20050;-80
2021/11/20 05:30:36;;;;;;;6.20;4.38;;;;;;;;;;4973437;28;20046;-81
2021/11/20 05:33:16;;;;;;;4.05;3.70;;;;;;;;;;4955957;28;20508;-81
2021/11/20 05:35:43;;;;;;;4.07;3.35;;;;;;;;;;4972182;28;20047;-82
2021/11/20 05:38:09;;;;;;;4.80;4.32;;;;;;;;;;4971870;28;20877;-80
2021/11/20 05:40:37;;;;;;;3.60;3.25;;;;;;;;;;4972932;28;20039;-80
2021/11/20 05:43:05;;;;;;;4.38;3.95;;;;;;;;;;4939892;28;20055;-80
2021/11/20 05:45:34;;;;;;;5.60;3.55;;;;;;;;;;4955074;28;20066;-80
2021/11/20 05:48:00;;;;;;;4.82;4.40;;;;;;;;;;4972606;28;20074;-79
2021/11/20 05:50:27;;;;;;;6.35;5.90;;;;;;;;;;4970242;28;20481;-78
2021/11/20 05:52:54;;;;;;;4.90;4.50;;;;;;;;;;4972496;28;20101;-78
2021/11/20 05:55:24;;;;;;;5.93;5.20;;;;;;;;;;4972704;28;20051;-81
2021/11/20 05:57:49;;;;;;;4.90;4.50;;;;;;;;;;4972353;28;20038;-79
2021/11/20 06:00:19;;;;;;;4.90;4.03;;;;;;;;;;4954886;28;20050;-80
2021/11/20 06:02:45;;;;;;;4.97;4.00;;;;;;;;;;4972859;28;20045;-80
2021/11/20 06:05:10;;;;;;;4.32;4.00;;;;;;;;;;4972414;28;20042;-79
2021/11/20 06:07:36;;;;;;;4.55;3.95;;;;;;;;;;4972556;28;20054;-79
2021/11/20 06:10:03;;;;;;;3.45;3.15;;;;;;;;;;4972794;28;20138;-79
2021/11/20 06:12:29;;;;;;;7.70;5.20;;;;;;;;;;4941546;29;20050;-78
2021/11/20 06:14:54;;;;;;;5.07;4.68;;;;;;;;;;4952920;29;20051;-80
2021/11/20 06:17:20;;;;;;;4.18;3.88;;;;;;;;;;4953057;29;20039;-81
2021/11/20 06:19:45;;;;;;;3.65;3.33;;;;;;;;;;4953560;29;20065;-80
2021/11/20 06:22:14;;;;;;;4.22;3.75;;;;;;;;;;4952741;29;20456;-79
2021/11/20 06:24:39;;;;;;;4.65;3.95;;;;;;;;;;4952585;29;20042;-79
2021/11/20 06:27:06;;;;;;;3.47;3.28;;;;;;;;;;4952620;29;20050;-79
2021/11/20 06:29:32;;;;;;;3.35;3.05;;;;;;;;;;4952291;29;20572;-80
2021/11/20 06:31:57;;;;;;;7.82;3.22;;;;;;;;;;4935988;29;20039;-81
2021/11/20 06:34:23;;;;;;;4.03;3.83;;;;;;;;;;4950913;29;20039;-82
2021/11/20 06:36:52;;;;;;;4.07;3.78;;;;;;;;;;4953118;29;20094;-81
2021/11/20 06:39:18;;;;;;;4.10;3.80;;;;;;;;;;4935936;29;20106;-79
2021/11/20 06:41:43;;;;;;;3.63;3.40;;;;;;;;;;4953249;29;20070;-79
2021/11/20 06:44:09;;;;;;;5.30;3.58;;;;;;;;;;4955205;28;20492;-81
2021/11/20 06:46:35;;;;;;;4.97;4.68;;;;;;;;;;4955172;29;20039;-79
2021/11/20 06:49:02;;;;;;;4.03;3.53;;;;;;;;;;4956284;29;20058;-80
2021/11/20 06:51:27;;;;;;;14.50;3.60;;;;;;;;;;4955998;29;20063;-79
2021/11/20 06:53:53;;;;;;;3.22;3.03;;;;;;;;;;4956440;29;20043;-78
2021/11/20 06:56:30;;;;;;;3.40;3.10;;;;;;;;;;4954149;29;20106;-81
2021/11/20 06:59:13;;;;;;;5.18;3.75;;;;;;;;;;4938676;29;20140;-79
2021/11/20 07:01:40;;;;;;;3.67;3.47;;;;;;;;;;4941431;29;20043;-81
2021/11/20 07:04:11;;;;;;;3.58;3.17;;;;;;;;;;4956044;29;20485;-81
2021/11/20 07:07:09;;;;;;;4.35;3.15;;;;;;;;;;4955968;29;20117;-82
2021/11/20 07:09:35;;;;;;;2.47;2.38;;;;;;;;;;4955578;29;20047;-80
2021/11/20 07:12:01;;;;;;;2.22;1.88;;;;;;;;;;4961700;28;20484;-83
2021/11/20 07:14:26;;;;;;;3.00;2.47;;;;;;;;;;4975645;28;20070;-83
2021/11/20 07:16:52;;;;;;;2.70;2.50;;;;;;;;;;4973924;28;20046;-84
2021/11/20 07:19:18;;;;;;;3.47;2.97;;;;;;;;;;4975789;28;20058;-84
2021/11/20 07:21:44;;;;;;;3.42;3.22;;;;;;;;;;4957965;28;20067;-84
2021/11/20 07:24:13;;;;;;;2.38;2.28;;;;;;;;;;4975525;28;20467;-82
2021/11/20 07:26:40;;;;;;;2.83;2.72;;;;;;;;;;4958581;28;20050;-80
2021/11/20 07:29:07;;;;;;;2.45;2.35;;;;;;;;;;4975343;28;20420;-81
2021/11/20 07:31:33;;;;;;;2.53;2.42;;;;;;;;;;4975425;28;20046;-80
2021/11/20 07:33:59;;;;;;;2.88;2.67;;;;;;;;;;4975187;28;20046;-84
2021/11/20 07:36:25;;;;;;;3.22;2.90;;;;;;;;;;4957721;28;20041;-80
2021/11/20 07:38:55;;;;;;;4.47;2.85;;;;;;;;;;4974145;28;20050;-79
2021/11/20 07:41:24;;;;;;;2.45;2.35;;;;;;;;;;4972991;28;20034;-81
2021/11/20 07:43:50;;;;;;;3.83;3.60;;;;;;;;;;4975127;28;20045;-80
2021/11/20 07:46:17;;;;;;;2.95;2.85;;;;;;;;;;4957793;28;20045;-80
2021/11/20 07:48:43;;;;;;;3.17;3.03;;;;;;;;;;4974756;28;20137;-81
2021/11/20 07:51:11;;;;;;;3.65;3.25;;;;;;;;;;4974513;28;20050;-81
2021/11/20 07:53:37;;;;;;;6.38;2.65;;;;;;;;;;4957129;28;20051;-82
2021/11/20 07:56:04;;;;;;;3.17;2.97;;;;;;;;;;4974174;28;20050;-81
2021/11/20 07:58:30;;;;;;;2.72;2.63;;;;;;;;;;4974115;28;20133;-79
2021/11/20 08:00:56;;;;;;;3.13;2.92;;;;;;;;;;4974302;28;20131;-78
2021/11/20 08:03:22;;;;;;;2.55;2.45;;;;;;;;;;4973817;28;20527;-80
2021/11/20 08:05:50;;;;;;;7.30;2.78;;;;;;;;;;4973309;28;20110;-78
2021/11/20 08:08:15;;;;;;;2.85;2.72;;;;;;;;;;4957088;28;20042;-80
2021/11/20 08:10:41;;;;;;;3.17;2.97;;;;;;;;;;4974866;28;20101;-82
2021/11/20 08:13:07;;;;;;;3.17;3.00;;;;;;;;;;4958196;28;20043;-81
2021/11/20 08:15:33;;;;;;;7.28;2.72;;;;;;;;;;4955285;29;20047;-80
2021/11/20 08:18:00;;;;;;;3.25;2.65;;;;;;;;;;4954821;29;20043;-79
2021/11/20 08:20:29;;;;;;;4.97;2.58;;;;;;;;;;4955332;29;20559;-79
2021/11/20 08:22:54;;;;;;;5.13;2.38;;;;;;;;;;4955468;29;20093;-80
2021/11/20 08:25:24;;;;;;;3.22;2.42;;;;;;;;;;4954617;29;20051;-80
2021/11/20 08:27:50;;;;;;;2.67;2.50;;;;;;;;;;4935632;29;20046;-80
2021/11/20 08:30:20;;;;;;;2.50;2.40;;;;;;;;;;4954807;29;20047;-83
2021/11/20 08:32:47;;;;;;;2.75;2.55;;;;;;;;;;4937942;29;20043;-79
2021/11/20 08:35:14;;;;;;;4.05;2.72;;;;;;;;;;4954418;29;20039;-81
2021/11/20 08:37:39;;;;;;;2.97;2.88;;;;;;;;;;4954562;29;20489;-80
2021/11/20 08:40:08;;;;;;;3.25;2.95;;;;;;;;;;4954410;29;20045;-80
2021/11/20 08:42:35;;;;;;;3.67;3.47;;;;;;;;;;4921575;29;20075;-82
2021/11/20 08:45:04;;;;;;;5.30;2.95;;;;;;;;;;4952689;29;20035;-79
2021/11/20 08:47:29;;;;;;;3.00;2.70;;;;;;;;;;4935899;29;20110;-80
2021/11/20 08:49:55;;;;;;;3.60;3.33;;;;;;;;;;4953408;29;20485;-79
2021/11/20 08:52:20;;;;;;;4.25;3.00;;;;;;;;;;4954119;29;20078;-80
2021/11/20 08:54:46;;;;;;;2.15;1.95;;;;;;;;;;4954098;29;20413;-79
2021/11/20 08:57:13;;;;;;;3.38;3.10;;;;;;;;;;4953476;29;20043;-81
2021/11/20 08:59:40;;;;;;;3.65;2.95;;;;;;;;;;4954013;29;20142;-79
2021/11/20 09:02:22;;;;;;;4.60;4.20;;;;;;;;;;4952383;29;20047;-78
2021/11/20 09:04:59;;;;;;;4.55;3.03;;;;;;;;;;4953185;29;20122;-79
2021/11/20 09:07:27;;;;;;;4.15;3.75;;;;;;;;;;4953158;29;20047;-80
2021/11/20 09:09:57;;;;;;;4.30;3.35;;;;;;;;;;4951372;29;20054;-80
2021/11/20 09:12:32;;;;;;;5.20;3.92;;;;;;;;;;4953036;29;20129;-80
2021/11/20 09:15:20;;;;;;;3.70;3.50;;;;;;;;;;4953636;29;20051;-79
2021/11/20 09:17:50;;;;;;;2.58;1.75;;;;;;;;;;4935871;29;20491;-82
2021/11/20 09:20:17;;;;;;;3.28;3.08;;;;;;;;;;4952521;29;20535;-80
2021/11/20 09:22:42;;;;;;;3.83;3.13;;;;;;;;;;4953983;29;20058;-81
2021/11/20 09:25:09;;;;;;;3.67;3.38;;;;;;;;;;4953434;29;20047;-79
2021/11/20 09:27:36;;;;;;;2.05;1.67;;;;;;;;;;4953238;29;20417;-77
2021/11/20 09:30:07;;;;;;;3.47;3.10;;;;;;;;;;4936294;29;20039;-79
2021/11/20 09:32:33;;;;;;;3.05;2.85;;;;;;;;;;4950819;29;20102;-82
2021/11/20 09:34:59;;;;;;;2.72;2.60;;;;;;;;;;4952556;29;20102;-78
2021/11/20 09:37:24;;;;;;;2.95;2.75;;;;;;;;;;4952501;29;20043;-81
2021/11/20 09:39:50;;;;;;;2.78;2.53;;;;;;;;;;4952741;29;20501;-81
2021/11/20 09:42:27;;;;;;;2.60;2.50;;;;;;;;;;4952680;29;20054;-78
2021/11/20 09:44:56;;;;;;;4.63;2.88;;;;;;;;;;4935686;29;20505;-79
2021/11/20 09:47:29;;;;;;;2.30;2.20;;;;;;;;;;4952458;29;20043;-78
2021/11/20 09:50:07;;;;;;;2.40;2.30;;;;;;;;;;4952136;29;20084;-79
2021/11/20 09:52:33;;;;;;;3.67;3.38;;;;;;;;;;4935423;29;20073;-79
2021/11/20 09:54:59;;;;;;;2.47;2.38;;;;;;;;;;4950168;29;20533;-79
2021/11/20 09:57:32;;;;;;;2.47;2.38;;;;;;;;;;4951818;29;20040;-78
2021/11/20 10:00:12;;;;;;;3.25;2.92;;;;;;;;;;4952474;29;20122;-78
2021/11/20 10:02:52;;;;;;;4.40;2.45;;;;;;;;;;4950813;29;20424;-77
2021/11/20 10:05:24;;;;;;;4.00;2.53;;;;;;;;;;4952077;29;20086;-78
2021/11/20 10:08:14;;;;;;;3.13;3.03;;;;;;;;;;4931956;29;20528;-79
2021/11/20 10:10:45;;;;;;;2.85;2.75;;;;;;;;;;4932745;29;20110;-78
2021/11/20 10:13:13;;;;;;;2.45;2.35;;;;;;;;;;4964604;28;20119;-80
2021/11/20 10:15:58;;;;;;;3.67;2.17;;;;;;;;;;4948169;29;20719;-78
2021/11/20 10:18:34;;;;;;;2.92;2.83;;;;;;;;;;4935066;29;20046;-78
2021/11/20 10:21:08;;;;;;;2.28;2.17;;;;;;;;;;4935821;29;20091;-79
2021/11/20 10:23:43;;;;;;;2.67;2.47;;;;;;;;;;4937195;29;20048;-80
2021/11/20 10:26:15;;;;;;;3.25;2.47;;;;;;;;;;4936408;29;20055;-82
2021/11/20 10:29:03;;;;;;;2.17;2.08;;;;;;;;;;4936704;29;20111;-75
2021/11/20 10:31:36;;;;;;;2.75;2.55;;;;;;;;;;4936773;29;20054;-79
2021/11/20 10:34:25;;;;;;;3.40;2.95;;;;;;;;;;4936771;29;20047;-77
2021/11/20 10:36:58;;;;;;;2.63;2.25;;;;;;;;;;4935556;29;20063;-78
2021/11/20 10:39:40;;;;;;;3.03;2.83;;;;;;;;;;4934639;29;20055;-78
2021/11/20 10:42:18;;;;;;;3.88;2.90;;;;;;;;;;4936935;29;20043;-77
2021/11/20 10:44:52;;;;;;;1.50;1.40;;;;;;;;;;4935555;29;20044;-79
2021/11/20 10:47:17;;;;;;;2.85;2.72;;;;;;;;;;4934970;29;20494;-78
2021/11/20 10:50:01;;;;;;;2.00;1.90;;;;;;;;;;4936629;29;20069;-78
2021/11/20 10:52:56;;;;;;;2.72;2.63;;;;;;;;;;4919456;29;20052;-79
2021/11/20 10:56:05;;;;;;;3.47;3.28;;;;;;;;;;4941807;29;20067;-79
2021/11/20 10:58:49;;;;;;;2.50;2.40;;;;;;;;;;4939983;29;20043;-78
2021/11/20 11:01:27;;;;;;;2.92;2.70;;;;;;;;;;4953701;29;20590;-79
2021/11/20 11:04:29;;;;;;;3.35;3.20;;;;;;;;;;4955363;29;20129;-78
2021/11/20 11:07:06;;;;;;;2.88;2.75;;;;;;;;;;4955350;29;20054;-81
2021/11/20 11:09:41;;;;;;;2.35;2.25;;;;;;;;;;4937781;29;20718;-80
2021/11/20 11:12:19;;;;;;;4.32;2.92;;;;;;;;;;4961417;28;20063;-79
2021/11/20 11:14:54;;;;;;;2.55;2.42;;;;;;;;;;4957470;28;20054;-79
2021/11/20 11:17:38;;;;;;;6.78;2.50;;;;;;;;;;4974100;28;20101;-81
2021/11/20 11:20:03;;;;;;;3.08;2.88;;;;;;;;;;4957070;28;20070;-77
2021/11/20 11:22:41;;;;;;;1.63;1.52;;;;;;;;;;4975074;28;20475;-83
2021/11/20 11:25:22;;;;;;;2.78;2.58;;;;;;;;;;4974134;28;20157;-78
2021/11/20 11:28:16;;;;;;;2.67;2.58;;;;;;;;;;4972183;28;20055;-78
2021/11/20 11:30:50;;;;;;;2.63;2.45;;;;;;;;;;4937229;28;20242;-79
2021/11/20 11:33:17;;;;;;;2.58;2.47;;;;;;;;;;4951702;28;20509;-77
2021/11/20 11:35:56;;;;;;;3.17;2.97;;;;;;;;;;4938265;29;20043;-79
2021/11/20 11:38:27;;;;;;;2.85;2.65;;;;;;;;;;4970520;28;20146;-79
2021/11/20 11:41:14;;;;;;;3.20;3.00;;;;;;;;;;4973960;28;20049;-79
2021/11/20 11:43:40;;;;;;;3.13;2.92;;;;;;;;;;4974190;28;20051;-79
2021/11/20 11:46:18;;;;;;;2.70;2.55;;;;;;;;;;4954218;28;20504;-78
2021/11/20 11:49:01;;;;;;;2.85;2.65;;;;;;;;;;4971399;28;20077;-79
2021/11/20 11:51:32;;;;;;;2.38;2.30;;;;;;;;;;4954512;29;20059;-79
2021/11/20 11:54:11;;;;;;;3.05;2.85;;;;;;;;;;4954255;29;20059;-79
2021/11/20 11:56:58;;;;;;;2.38;2.25;;;;;;;;;;4954338;29;20043;-80
2021/11/20 11:59:36;;;;;;;2.90;2.70;;;;;;;;;;4937322;29;20047;-78
2021/11/20 12:02:17;;;;;;;2.67;2.58;;;;;;;;;;4953884;29;20039;-78
2021/11/20 12:05:23;;;;;;;2.72;2.55;;;;;;;;;;4954460;29;20134;-78
2021/11/20 12:07:49;;;;;;;2.97;2.88;;;;;;;;;;4936104;29;20049;-81
2021/11/20 12:10:32;;;;;;;2.25;2.15;;;;;;;;;;4950537;28;20051;-78
2021/11/20 12:13:07;;;;;;;3.70;3.42;;;;;;;;;;4954617;29;20071;-78
2021/11/20 12:15:44;;;;;;;2.63;2.50;;;;;;;;;;4962917;28;20133;-78
2021/11/20 12:18:29;;;;;;;2.15;1.73;;;;;;;;;;4973636;28;20039;-81
2021/11/20 12:21:16;;;;;;;2.85;2.75;;;;;;;;;;4973649;28;20093;-79
2021/11/20 12:23:59;;;;;;;3.10;2.70;;;;;;;;;;4973602;28;20038;-81
2021/11/20 12:26:33;;;;;;;2.58;2.47;;;;;;;;;;4953269;28;20043;-78
2021/11/20 12:29:07;;;;;;;3.30;2.95;;;;;;;;;;4953614;29;20070;-79
2021/11/20 12:31:55;;;;;;;5.55;4.10;;;;;;;;;;4951771;29;20101;-79
2021/11/20 12:34:35;;;;;;;3.08;2.70;;;;;;;;;;4953201;29;20418;-78
2021/11/20 12:37:21;;;;;;;4.35;4.15;;;;;;;;;;4953352;29;20436;-79
2021/11/20 12:39:52;;;;;;;3.50;2.60;;;;;;;;;;4937187;28;20046;-79
2021/11/20 12:42:39;;;;;;;5.05;4.70;;;;;;;;;;4953012;29;20484;-80
2021/11/20 12:45:17;;;;;;;4.50;3.15;;;;;;;;;;4935951;29;20035;-80
2021/11/20 12:48:24;;;;;;;3.92;3.67;;;;;;;;;;4953981;29;20569;-78
2021/11/20 12:51:02;;;;;;;3.60;3.25;;;;;;;;;;4925658;29;20063;-79
2021/11/20 12:53:38;;;;;;;3.80;3.50;;;;;;;;;;4931690;29;20051;-78
2021/11/20 12:56:24;;;;;;;2.13;2.03;;;;;;;;;;4936493;29;20417;-78
2021/11/20 12:59:14;;;;;;;5.72;3.53;;;;;;;;;;4953823;29;20047;-79
2021/11/20 13:01:45;;;;;;;3.33;3.05;;;;;;;;;;4953954;29;20075;-76
2021/11/20 13:04:23;;;;;;;3.40;3.15;;;;;;;;;;4936492;29;20134;-78
2021/11/20 13:06:54;;;;;;;2.53;2.42;;;;;;;;;;4953608;29;20058;-80
2021/11/20 13:09:36;;;;;;;4.22;3.00;;;;;;;;;;4953810;29;20508;-78
2021/11/20 13:12:40;;;;;;;3.30;3.10;;;;;;;;;;4956113;28;20047;-77
2021/11/20 13:15:46;;;;;;;3.28;3.17;;;;;;;;;;4932304;29;20039;-79
2021/11/20 13:18:27;;;;;;;3.05;2.85;;;;;;;;;;4893857;29;20058;-78
2021/11/20 13:21:11;;;;;;;2.75;2.65;;;;;;;;;;4935623;29;20535;-80
2021/11/20 13:23:39;;;;;;;4.30;2.10;;;;;;;;;;4935838;29;20432;-81
2021/11/20 13:26:05;;;;;;;2.97;2.78;;;;;;;;;;4953341;29;20118;-78
2021/11/20 13:28:41;;;;;;;2.67;2.58;;;;;;;;;;4952529;29;20515;-78
2021/11/20 13:31:08;;;;;;;;;;;;;;;;;;4950490;28;20055;-78
2021/11/20 13:33:33;;;;;;;2.72;2.53;;;;;;;;;;4944866;28;19923;-79
2021/11/20 13:36:01;;;;;;;5.72;4.95;;;;;;;;;;4945975;28;20444;-79
2021/11/20 13:38:27;;;;;;;3.25;3.05;;;;;;;;;;4945138;28;20453;-77
2021/11/20 13:40:55;;;;;;;2.83;2.63;;;;;;;;;;4948164;29;20043;-80
2021/11/20 13:43:35;;;;;;;4.32;2.80;;;;;;;;;;4947569;29;20047;-79
2021/11/20 13:46:09;;;;;;;6.95;3.47;;;;;;;;;;4950631;29;20062;-78
2021/11/20 13:48:35;;;;;;;3.38;3.08;;;;;;;;;;4951955;29;20044;-79
2021/11/20 13:51:13;;;;;;;7.97;3.60;;;;;;;;;;4952145;29;20130;-80
2021/11/20 13:53:39;;;;;;;3.67;2.90;;;;;;;;;;4953185;28;20062;-78
2021/11/20 13:56:07;;;;;;;4.35;2.78;;;;;;;;;;4956937;29;20490;-78
2021/11/20 13:58:34;;;;;;;2.45;2.25;;;;;;;;;;4956346;29;20138;-78
2021/11/20 14:01:06;;;;;;;2.38;2.17;;;;;;;;;;4956497;29;20043;-79
2021/11/20 14:03:33;;;;;;;1.55;1.45;;;;;;;;;;4956703;29;20432;-77
2021/11/20 14:05:59;;;;;;;4.35;2.20;;;;;;;;;;4960355;28;20043;-77
2021/11/20 14:08:27;;;;;;;2.58;2.42;;;;;;;;;;4972454;28;20084;-78
2021/11/20 14:11:02;;;;;;;2.15;2.05;;;;;;;;;;4958161;28;20407;-78
2021/11/20 14:13:30;;;;;;;2.05;1.98;;;;;;;;;;4975162;28;20047;-78
2021/11/20 14:15:56;;;;;;;1.50;1.40;;;;;;;;;;4973028;28;20468;-76
2021/11/20 14:18:23;;;;;;;4.85;2.30;;;;;;;;;;4975475;28;20047;-78
2021/11/20 14:20:59;;;;;;;2.33;2.17;;;;;;;;;;4942757;28;20042;-77
2021/11/20 14:23:25;;;;;;;2.65;2.55;;;;;;;;;;4974601;28;20042;-77
2021/11/20 14:25:55;;;;;;;2.65;2.55;;;;;;;;;;4956875;28;20105;-79
2021/11/20 14:28:20;;;;;;;2.38;2.22;;;;;;;;;;4974189;28;20411;-78
2021/11/20 14:30:49;;;;;;;2.45;2.35;;;;;;;;;;4974598;28;20117;-78
2021/11/20 14:33:18;;;;;;;3.30;2.58;;;;;;;;;;4975003;28;20050;-77
2021/11/20 14:35:55;;;;;;;2.22;2.13;;;;;;;;;;4957457;28;20035;-79
2021/11/20 14:38:23;;;;;;;2.28;2.20;;;;;;;;;;4971937;28;20045;-78
2021/11/20 14:40:51;;;;;;;2.55;2.15;;;;;;;;;;4974277;28;20109;-79
2021/11/20 14:43:25;;;;;;;2.38;2.30;;;;;;;;;;4975139;28;20073;-78
2021/11/20 14:45:51;;;;;;;3.80;3.60;;;;;;;;;;4942401;28;20477;-75
2021/11/20 14:48:29;;;;;;;2.30;2.15;;;;;;;;;;4974621;28;20082;-78
2021/11/20 14:50:59;;;;;;;4.35;2.55;;;;;;;;;;4975063;28;20054;-77
2021/11/20 14:53:43;;;;;;;;;;;;;;;;;;4975191;28;20137;-76
2021/11/20 14:56:17;;;;;;;2.42;2.33;;;;;;;;;;4973878;28;19926;-77
2021/11/20 14:58:44;;;;;;;1.80;1.70;;;;;;;;;;4974306;28;20416;-78
2021/11/20 15:01:11;;;;;;;2.30;2.22;;;;;;;;;;4971746;28;20043;-77
2021/11/20 15:03:38;;;;;;;3.17;2.97;;;;;;;;;;4974145;28;20081;-76
2021/11/20 15:06:07;;;;;;;2.70;2.60;;;;;;;;;;4965514;28;20086;-78